createdAt,value
2022-10-24T00:01:09.306Z,82.42
2022-10-24T00:03:11.388Z,82.16
2022-10-24T00:05:14.108Z,82.33
2022-10-24T00:07:15.865Z,82.28
2022-10-24T00:09:17.460Z,81.76
2022-10-24T00:11:28.451Z,81.54
2022-10-24T00:13:30.217Z,80.70
2022-10-24T00:15:31.948Z,81.15
2022-10-24T00:17:34.150Z,80.47
2022-10-24T00:19:35.947Z,80.31
2022-10-24T00:21:37.639Z,79.97
2022-10-24T00:23:39.622Z,80.55
2022-10-24T00:25:41.360Z,80.53
2022-10-24T00:27:43.530Z,81.73
2022-10-24T00:29:45.245Z,81.16
2022-10-24T00:31:47.126Z,81.03
2022-10-24T00:33:49.224Z,81.60
2022-10-24T00:35:50.845Z,81.78
2022-10-24T00:37:52.504Z,81.29
2022-10-24T00:39:54.173Z,81.65
2022-10-24T00:41:58.983Z,81.50
2022-10-24T00:44:23.334Z,81.04
2022-10-24T00:46:25.023Z,81.60
2022-10-24T00:48:32.756Z,81.22
2022-10-24T00:50:34.568Z,81.36
2022-10-24T00:52:40.929Z,80.94
2022-10-24T00:54:43.072Z,81.33
2022-10-24T00:56:58.660Z,80.89
2022-10-24T00:59:03.992Z,80.99
2022-10-24T01:01:06.364Z,81.07
2022-10-24T01:03:10.287Z,80.84
2022-10-24T01:05:12.767Z,80.88
2022-10-24T01:07:25.318Z,80.52
2022-10-24T01:09:49.108Z,81.32
2022-10-24T01:12:28.490Z,82.19
2022-10-24T01:14:50.691Z,83.07
2022-10-24T01:17:11.571Z,83.04
2022-10-24T01:19:33.005Z,83.02
2022-10-24T01:21:59.809Z,82.76
2022-10-24T01:24:18.542Z,83.06
2022-10-24T01:26:34.501Z,83.81
2022-10-24T01:29:25.767Z,83.30
2022-10-24T01:31:57.241Z,83.06
2022-10-24T01:34:13.338Z,83.15
2022-10-24T01:36:26.904Z,83.46
2022-10-24T01:38:39.172Z,83.08
2022-10-24T01:40:45.381Z,83.51
2022-10-24T01:42:49.559Z,83.90
2022-10-24T01:44:56.195Z,83.78
2022-10-24T01:47:03.978Z,83.30
2022-10-24T01:49:13.238Z,83.20
2022-10-24T01:51:17.784Z,82.72
2022-10-24T01:53:24.681Z,82.85
2022-10-24T01:55:27.281Z,82.56
2022-10-24T01:57:30.473Z,82.37
2022-10-24T01:59:32.056Z,82.62
2022-10-24T02:01:36.056Z,82.35
2022-10-24T02:03:43.033Z,82.06
2022-10-24T02:05:49.780Z,82.72
2022-10-24T02:07:55.843Z,83.25
2022-10-24T02:10:05.335Z,83.51
2022-10-24T02:12:12.920Z,83.89
2022-10-24T02:14:28.658Z,83.98
2022-10-24T02:16:30.877Z,83.80
2022-10-24T02:18:33.590Z,84.16
2022-10-24T02:20:41.601Z,84.17
2022-10-24T02:22:53.933Z,84.97
2022-10-24T02:25:06.776Z,84.60
2022-10-24T02:27:15.301Z,85.65
2022-10-24T02:29:40.336Z,85.54
2022-10-24T02:31:48.929Z,85.70
2022-10-24T02:33:52.414Z,85.57
2022-10-24T02:35:55.952Z,85.96
2022-10-24T02:38:10.407Z,85.68
2022-10-24T02:40:15.337Z,85.28
2022-10-24T02:42:18.972Z,85.20
2022-10-24T02:44:22.144Z,84.89
2022-10-24T02:46:25.269Z,84.10
2022-10-24T02:48:42.494Z,84.05
2022-10-24T02:50:44.905Z,83.79
2022-10-24T02:52:47.295Z,83.58
2022-10-24T02:54:50.796Z,83.27
2022-10-24T02:56:58.644Z,83.04
2022-10-24T02:59:00.505Z,82.60
2022-10-24T03:01:02.277Z,82.58
2022-10-24T03:03:04.094Z,81.68
2022-10-24T03:05:10.301Z,81.56
2022-10-24T03:07:12.309Z,82.01
2022-10-24T03:09:14.228Z,81.97
2022-10-24T03:11:16.111Z,81.27
2022-10-24T03:13:17.797Z,81.53
2022-10-24T03:15:19.599Z,80.84
2022-10-24T03:17:21.967Z,80.64
2022-10-24T03:19:23.835Z,80.07
2022-10-24T03:21:25.530Z,80.04
2022-10-24T03:23:28.768Z,80.13
2022-10-24T03:25:30.561Z,80.13
2022-10-24T03:27:33.980Z,80.05
2022-10-24T03:29:35.757Z,80.43
2022-10-24T03:31:37.744Z,80.42
2022-10-24T03:33:39.498Z,80.07
2022-10-24T03:35:41.214Z,80.04
2022-10-24T03:37:43.220Z,79.54
2022-10-24T03:39:44.950Z,79.63
2022-10-24T03:41:46.604Z,79.53
2022-10-24T03:43:48.235Z,79.64
2022-10-24T03:45:49.950Z,79.63
2022-10-24T03:47:51.839Z,79.60
2022-10-24T03:49:53.549Z,79.99
2022-10-24T03:51:55.258Z,80.06
2022-10-24T03:53:57.093Z,79.64
2022-10-24T03:55:59.834Z,78.95
2022-10-24T03:58:01.719Z,78.88
2022-10-24T04:00:05.073Z,78.94
2022-10-24T04:02:06.867Z,78.30
2022-10-24T04:04:08.695Z,78.62
2022-10-24T04:06:11.175Z,78.62
2022-10-24T04:08:12.862Z,78.21
2022-10-24T04:10:14.578Z,78.27
2022-10-24T04:12:16.383Z,77.84
2022-10-24T04:14:18.057Z,77.41
2022-10-24T04:16:20.380Z,76.95
2022-10-24T04:18:22.028Z,77.43
2022-10-24T04:20:23.955Z,77.35
2022-10-24T04:22:25.619Z,76.98
2022-10-24T04:24:27.279Z,77.08
2022-10-24T04:26:29.425Z,77.31
2022-10-24T04:28:31.148Z,77.06
2022-10-24T04:30:33.018Z,77.37
2022-10-24T04:32:34.719Z,77.35
2022-10-24T04:34:37.304Z,77.67
2022-10-24T04:36:38.972Z,77.29
2022-10-24T04:38:40.968Z,77.28
2022-10-24T04:40:48.021Z,77.68
2022-10-24T04:42:49.763Z,77.50
2022-10-24T04:44:51.461Z,77.49
2022-10-24T04:46:53.196Z,77.45
2022-10-24T04:48:54.876Z,77.36
2022-10-24T04:50:56.532Z,77.17
2022-10-24T04:52:58.234Z,76.85
2022-10-24T04:55:00.213Z,76.71
2022-10-24T04:57:02.298Z,76.75
2022-10-24T04:59:04.509Z,76.27
2022-10-24T05:01:06.235Z,75.94
2022-10-24T05:03:08.077Z,75.98
2022-10-24T05:05:09.746Z,75.37
2022-10-24T05:07:11.391Z,75.29
2022-10-24T05:09:14.489Z,75.36
2022-10-24T05:11:16.211Z,75.37
2022-10-24T05:13:17.832Z,75.56
2022-10-24T05:15:30.055Z,75.74
2022-10-24T05:17:31.820Z,75.81
2022-10-24T05:19:33.514Z,75.64
2022-10-24T05:21:35.284Z,74.97
2022-10-24T05:23:36.892Z,74.87
2022-10-24T05:25:38.775Z,74.97
2022-10-24T05:27:40.481Z,75.13
2022-10-24T05:29:42.191Z,74.39
2022-10-24T05:31:43.870Z,74.20
2022-10-24T05:33:45.611Z,73.87
2022-10-24T05:35:47.498Z,73.94
2022-10-24T05:37:49.140Z,73.81
2022-10-24T05:39:51.186Z,74.02
2022-10-24T05:41:55.310Z,73.85
2022-10-24T05:43:57.127Z,74.52
2022-10-24T05:45:58.747Z,74.57
2022-10-24T05:48:00.923Z,74.40
2022-10-24T05:50:03.048Z,74.59
2022-10-24T05:52:05.007Z,74.54
2022-10-24T05:54:06.772Z,74.33
2022-10-24T05:56:08.735Z,74.62
2022-10-24T05:58:10.347Z,74.57
2022-10-24T06:00:15.071Z,75.03
2022-10-24T06:02:19.654Z,74.89
2022-10-24T06:04:21.384Z,74.98
2022-10-24T06:06:24.392Z,75.06
2022-10-24T06:08:26.181Z,74.61
2022-10-24T06:10:27.901Z,74.46
2022-10-24T06:12:29.790Z,74.89
2022-10-24T06:14:31.506Z,74.65
2022-10-24T06:16:34.283Z,74.96
2022-10-24T06:18:37.138Z,75.28
2022-10-24T06:20:39.014Z,74.75
2022-10-24T06:22:40.886Z,75.25
2022-10-24T06:24:42.668Z,75.10
2022-10-24T06:26:44.291Z,74.99
2022-10-24T06:28:46.032Z,74.98
2022-10-24T06:30:50.045Z,74.81
2022-10-24T06:32:51.835Z,75.34
2022-10-24T06:34:53.998Z,75.04
2022-10-24T06:36:55.813Z,74.84
2022-10-24T06:38:57.693Z,74.73
2022-10-24T06:40:59.480Z,75.09
2022-10-24T06:43:01.115Z,74.90
2022-10-24T06:45:02.986Z,74.98
2022-10-24T06:47:05.267Z,74.71
2022-10-24T06:49:07.770Z,74.94
2022-10-24T06:51:09.936Z,75.03
2022-10-24T06:53:11.721Z,74.35
2022-10-24T06:55:13.411Z,74.77
2022-10-24T06:57:15.202Z,74.66
2022-10-24T06:59:18.252Z,74.66
2022-10-24T07:01:22.795Z,74.29
2022-10-24T07:03:24.528Z,74.22
2022-10-24T07:05:27.480Z,73.90
2022-10-24T07:07:29.965Z,74.04
2022-10-24T07:09:31.830Z,74.41
2022-10-24T07:11:34.561Z,74.28
2022-10-24T07:13:36.552Z,74.19
2022-10-24T07:15:38.193Z,74.45
2022-10-24T07:17:44.638Z,74.38
2022-10-24T07:19:46.530Z,74.16
2022-10-24T07:21:48.196Z,74.01
2022-10-24T07:23:53.981Z,74.13
2022-10-24T07:25:55.976Z,74.07
2022-10-24T07:27:57.683Z,74.35
2022-10-24T07:30:03.091Z,74.10
2022-10-24T07:32:07.295Z,73.74
2022-10-24T07:34:10.441Z,74.16
2022-10-24T07:36:20.034Z,74.39
2022-10-24T07:38:21.803Z,74.29
2022-10-24T07:40:23.727Z,74.56
2022-10-24T07:42:25.524Z,74.54
2022-10-24T07:44:27.271Z,74.77
2022-10-24T07:46:29.460Z,74.40
2022-10-24T07:48:31.081Z,74.27
2022-10-24T07:50:34.886Z,73.83
2022-10-24T07:52:36.624Z,73.65
2022-10-24T07:54:38.254Z,73.53
2022-10-24T07:56:40.104Z,73.51
2022-10-24T07:58:43.994Z,73.87
2022-10-24T08:00:47.311Z,73.82
2022-10-24T08:04:59.406Z,73.62
2022-10-24T08:07:01.063Z,73.93
2022-10-24T08:09:03.540Z,73.98
2022-10-24T08:11:15.839Z,73.67
2022-10-24T08:13:17.806Z,73.74
2022-10-24T08:15:19.688Z,73.20
2022-10-24T08:17:23.361Z,73.41
2022-10-24T08:21:31.666Z,72.96
2022-10-24T08:23:35.070Z,73.07
2022-10-24T08:25:41.761Z,73.07
2022-10-24T08:29:49.974Z,72.79
2022-10-24T08:31:57.048Z,73.11
2022-10-24T08:33:59.565Z,73.15
2022-10-24T08:36:04.815Z,73.26
2022-10-24T08:38:06.577Z,73.01
2022-10-24T08:40:13.140Z,72.77
2022-10-24T08:42:16.993Z,72.88
2022-10-24T08:44:36.001Z,72.91
2022-10-24T08:47:03.664Z,72.42
2022-10-24T08:49:26.761Z,72.48
2022-10-24T08:51:42.228Z,72.18
2022-10-24T08:53:45.037Z,71.52
2022-10-24T08:55:50.881Z,71.34
2022-10-24T08:57:56.934Z,71.49
2022-10-24T09:00:18.720Z,71.40
2022-10-24T09:02:25.176Z,71.13
2022-10-24T09:04:33.759Z,71.02
2022-10-24T09:06:36.945Z,71.23
2022-10-24T09:08:43.485Z,71.12
2022-10-24T09:10:59.439Z,70.43
2022-10-24T09:13:01.324Z,70.65
2022-10-24T09:15:14.171Z,70.37
2022-10-24T09:17:24.805Z,70.06
2022-10-24T09:19:29.440Z,69.55
2022-10-24T09:21:31.100Z,69.55
2022-10-24T09:23:35.404Z,69.66
2022-10-24T09:25:41.347Z,70.00
2022-10-24T09:27:44.209Z,69.99
2022-10-24T09:29:46.373Z,69.95
2022-10-24T09:31:49.973Z,70.25
2022-10-24T09:33:53.257Z,70.71
2022-10-24T09:35:57.738Z,70.07
2022-10-24T09:38:33.669Z,69.41
2022-10-24T09:40:35.653Z,69.20
2022-10-24T09:42:38.644Z,68.88
2022-10-24T09:44:47.722Z,69.08
2022-10-24T09:46:49.506Z,69.08
2022-10-24T09:48:59.645Z,68.43
2022-10-24T09:51:03.308Z,68.43
2022-10-24T09:53:05.354Z,68.50
2022-10-24T09:55:22.938Z,68.13
2022-10-24T09:57:26.824Z,67.89
2022-10-24T09:59:44.294Z,67.56
2022-10-24T10:01:46.461Z,67.87
2022-10-24T10:04:07.533Z,67.10
2022-10-24T10:06:18.538Z,67.06
2022-10-24T10:08:22.965Z,66.52
2022-10-24T10:10:29.783Z,66.51
2022-10-24T10:12:41.385Z,66.35
2022-10-24T10:14:43.181Z,65.30
2022-10-24T10:16:46.010Z,64.91
2022-10-24T10:18:48.675Z,64.86
2022-10-24T10:21:07.202Z,64.35
2022-10-24T10:23:37.820Z,64.26
2022-10-24T10:25:39.455Z,64.09
2022-10-24T10:27:41.880Z,63.53
2022-10-24T10:29:43.709Z,63.32
2022-10-24T10:31:48.499Z,63.36
2022-10-24T10:34:08.396Z,63.04
2022-10-24T10:36:35.261Z,63.26
2022-10-24T10:38:46.930Z,63.46
2022-10-24T10:41:02.020Z,61.88
2022-10-24T10:43:15.781Z,62.16
2022-10-24T10:45:29.584Z,62.44
2022-10-24T10:47:43.295Z,61.66
2022-10-24T10:49:48.565Z,60.95
2022-10-24T10:52:30.158Z,60.53
2022-10-24T10:54:56.717Z,60.32
2022-10-24T10:57:08.205Z,59.74
2022-10-24T10:59:45.021Z,59.82
2022-10-24T11:02:03.224Z,60.27
2022-10-24T11:04:31.249Z,60.17
2022-10-24T11:06:32.902Z,60.65
2022-10-24T11:08:56.427Z,60.95
2022-10-24T11:11:03.345Z,60.36
2022-10-24T11:13:14.214Z,60.58
2022-10-24T11:15:23.160Z,60.09
2022-10-24T11:17:54.942Z,59.85
2022-10-24T11:20:05.429Z,59.36
2022-10-24T11:22:15.915Z,59.36
2022-10-24T11:24:22.970Z,59.10
2022-10-24T11:26:41.341Z,58.50
2022-10-24T11:28:52.564Z,57.58
2022-10-24T11:31:00.397Z,57.93
2022-10-24T11:33:06.787Z,58.05
2022-10-24T11:35:24.446Z,58.44
2022-10-24T11:37:42.607Z,58.77
2022-10-24T11:40:00.537Z,58.72
2022-10-24T11:42:31.625Z,59.08
2022-10-24T11:44:50.719Z,59.64
2022-10-24T11:47:07.761Z,59.98
2022-10-24T11:49:36.849Z,60.27
2022-10-24T11:52:11.554Z,60.21
2022-10-24T11:54:19.054Z,60.36
2022-10-24T11:56:31.533Z,60.57
2022-10-24T11:58:36.905Z,60.62
2022-10-24T12:01:06.504Z,60.13
2022-10-24T12:03:21.541Z,60.16
2022-10-24T12:05:55.907Z,59.44
2022-10-24T12:08:42.598Z,58.83
2022-10-24T12:11:22.251Z,57.89
2022-10-24T12:13:42.568Z,58.04
2022-10-24T12:15:46.986Z,57.97
2022-10-24T12:17:54.509Z,57.50
2022-10-24T12:19:56.726Z,57.05
2022-10-24T12:22:02.661Z,56.89
2022-10-24T12:24:04.801Z,57.13
2022-10-24T12:26:06.849Z,56.88
2022-10-24T12:28:22.507Z,56.69
2022-10-24T12:30:26.685Z,56.26
2022-10-24T12:32:53.215Z,55.98
2022-10-24T12:35:28.889Z,55.38
2022-10-24T12:37:23.172Z,55.65
2022-10-24T12:39:34.597Z,54.59
2022-10-24T12:41:38.071Z,53.65
2022-10-24T12:43:45.034Z,53.04
2022-10-24T12:45:46.812Z,53.11
2022-10-24T12:50:22.275Z,52.66
2022-10-24T12:52:32.804Z,52.32
2022-10-24T12:54:43.366Z,52.42
2022-10-24T12:56:53.879Z,52.15
2022-10-24T12:59:17.968Z,52.31
2022-10-24T13:01:27.338Z,51.68
2022-10-24T13:03:55.592Z,51.20
2022-10-24T13:06:24.882Z,51.08
2022-10-24T13:09:04.250Z,50.87
2022-10-24T13:11:26.470Z,51.19
2022-10-24T13:13:55.100Z,50.94
2022-10-24T13:16:39.279Z,51.30
2022-10-24T13:19:02.106Z,50.94
2022-10-24T13:21:19.214Z,50.81
2022-10-24T13:23:25.120Z,50.33
2022-10-24T13:25:38.973Z,50.86
2022-10-24T13:27:40.885Z,50.80
2022-10-24T13:29:44.170Z,50.28
2022-10-24T13:31:47.288Z,49.94
2022-10-24T13:33:49.783Z,50.11
2022-10-24T13:35:53.225Z,50.06
2022-10-24T13:38:00.574Z,49.68
2022-10-24T13:40:32.402Z,49.61
2022-10-24T13:42:42.962Z,49.32
2022-10-24T13:44:55.378Z,48.85
2022-10-24T13:47:19.056Z,48.53
2022-10-24T13:49:53.431Z,48.24
2022-10-24T13:52:00.380Z,48.17
2022-10-24T13:54:20.090Z,47.33
2022-10-24T13:56:21.965Z,47.74
2022-10-24T13:58:26.715Z,47.88
2022-10-24T14:00:32.202Z,47.93
2022-10-24T14:02:41.480Z,47.95
2022-10-24T14:04:47.355Z,47.88
2022-10-24T14:06:49.665Z,48.30
2022-10-24T14:09:03.925Z,48.43
2022-10-24T14:11:14.184Z,48.55
2022-10-24T14:13:17.801Z,49.34
2022-10-24T14:15:22.399Z,48.59
2022-10-24T14:17:27.022Z,48.68
2022-10-24T14:19:31.962Z,48.15
2022-10-24T14:21:45.094Z,48.70
2022-10-24T14:23:58.285Z,48.03
2022-10-24T14:26:09.882Z,47.87
2022-10-24T14:28:16.563Z,47.34
2022-10-24T14:30:24.026Z,48.00
2022-10-24T14:32:27.271Z,48.23
2022-10-24T14:34:35.320Z,47.89
2022-10-24T14:36:39.191Z,48.35
2022-10-24T14:38:42.047Z,47.57
2022-10-24T14:40:45.679Z,47.53
2022-10-24T14:42:49.040Z,47.30
2022-10-24T14:44:53.802Z,47.77
2022-10-24T14:47:22.492Z,47.53
2022-10-24T14:49:27.024Z,48.08
2022-10-24T14:51:39.306Z,48.59
2022-10-24T14:53:45.163Z,48.87
2022-10-24T14:55:54.827Z,48.68
2022-10-24T14:57:57.117Z,48.81
2022-10-24T15:00:07.626Z,49.37
2022-10-24T15:02:12.532Z,49.50
2022-10-24T15:04:36.563Z,50.02
2022-10-24T15:06:40.735Z,50.21
2022-10-24T15:08:48.447Z,50.75
2022-10-24T15:11:02.650Z,50.42
2022-10-24T15:13:11.629Z,50.18
2022-10-24T15:15:27.733Z,50.42
2022-10-24T15:17:33.119Z,50.57
2022-10-24T15:19:38.671Z,50.57
2022-10-24T15:21:43.949Z,50.63
2022-10-24T15:23:49.049Z,50.95
2022-10-24T15:26:17.049Z,50.58
2022-10-24T15:29:05.466Z,50.92
2022-10-24T15:31:10.655Z,51.21
2022-10-24T15:33:12.254Z,51.75
2022-10-24T15:35:14.903Z,52.08
2022-10-24T15:37:23.096Z,51.90
2022-10-24T15:39:25.587Z,52.24
2022-10-24T15:41:27.841Z,51.86
2022-10-24T15:43:30.063Z,52.12
2022-10-24T15:45:31.825Z,52.68
2022-10-24T15:47:33.565Z,52.85
2022-10-24T15:49:35.722Z,53.34
2022-10-24T15:51:39.259Z,53.26
2022-10-24T15:53:41.894Z,53.92
2022-10-24T15:55:43.547Z,54.10
2022-10-24T15:57:46.740Z,54.48
2022-10-24T15:59:48.446Z,54.85
2022-10-24T16:01:57.537Z,55.60
2022-10-24T16:03:59.917Z,55.82
2022-10-24T16:06:04.382Z,56.26
2022-10-24T16:08:06.804Z,56.13
2022-10-24T16:10:12.790Z,56.16
2022-10-24T16:12:14.434Z,55.98
2022-10-24T16:14:18.630Z,56.23
2022-10-24T16:16:20.379Z,56.00
2022-10-24T16:18:22.285Z,56.59
2022-10-24T16:20:23.948Z,56.68
2022-10-24T16:22:25.572Z,56.73
2022-10-24T16:24:28.437Z,56.78
2022-10-24T16:26:30.262Z,58.02
2022-10-24T16:28:31.922Z,57.58
2022-10-24T16:30:36.656Z,58.06
2022-10-24T16:32:38.644Z,58.25
2022-10-24T16:34:40.246Z,58.62
2022-10-24T16:36:42.073Z,59.39
2022-10-24T16:38:45.286Z,59.77
2022-10-24T16:40:48.694Z,59.69
2022-10-24T16:42:51.991Z,59.99
2022-10-24T16:44:54.007Z,59.96
2022-10-24T16:46:55.662Z,60.58
2022-10-24T16:48:57.565Z,60.61
2022-10-24T16:50:59.523Z,61.19
2022-10-24T16:53:04.364Z,61.40
2022-10-24T16:55:06.567Z,61.94
2022-10-24T16:57:08.199Z,62.82
2022-10-24T16:59:11.736Z,63.80
2022-10-24T17:01:17.166Z,64.01
2022-10-24T17:03:18.967Z,64.02
2022-10-24T17:05:25.107Z,65.20
2022-10-24T17:07:26.813Z,65.49
2022-10-24T17:09:28.528Z,66.62
2022-10-24T17:11:44.917Z,66.21
2022-10-24T17:13:47.629Z,66.94
2022-10-24T17:15:49.623Z,66.09
2022-10-24T17:17:51.464Z,66.01
2022-10-24T17:19:53.540Z,65.71
2022-10-24T17:21:55.437Z,66.08
2022-10-24T17:23:57.718Z,65.99
2022-10-24T17:25:59.491Z,66.28
2022-10-24T17:28:01.542Z,65.77
2022-10-24T17:30:04.107Z,66.23
2022-10-24T17:32:06.237Z,66.16
2022-10-24T17:34:09.741Z,66.16
2022-10-24T17:36:21.006Z,66.03
2022-10-24T17:38:50.763Z,66.26
2022-10-24T17:40:54.884Z,66.41
2022-10-24T17:42:56.849Z,66.64
2022-10-24T17:45:06.968Z,66.90
2022-10-24T17:47:08.777Z,67.04
2022-10-24T17:49:11.371Z,66.70
2022-10-24T17:51:17.481Z,67.44
2022-10-24T17:53:19.635Z,68.49
2022-10-24T17:55:46.301Z,68.00
2022-10-24T17:57:48.392Z,68.42
2022-10-24T17:59:50.351Z,68.37
2022-10-24T18:01:52.187Z,69.58
2022-10-24T18:03:53.900Z,71.26
2022-10-24T18:06:03.541Z,71.71
2022-10-24T18:08:06.871Z,72.33
2022-10-24T18:10:09.435Z,73.21
2022-10-24T18:12:11.133Z,73.58
2022-10-24T18:14:12.927Z,73.45
2022-10-24T18:16:17.562Z,73.39
2022-10-24T18:18:19.606Z,73.89
2022-10-24T18:20:21.237Z,73.55
2022-10-24T18:22:22.910Z,73.86
2022-10-24T18:24:24.596Z,74.33
2022-10-24T18:26:28.261Z,74.92
2022-10-24T18:28:29.987Z,74.26
2022-10-24T18:30:31.711Z,74.11
2022-10-24T18:32:33.964Z,74.03
2022-10-24T18:34:35.785Z,73.76
2022-10-24T18:36:37.385Z,74.03
2022-10-24T18:38:40.126Z,72.25
2022-10-24T18:40:42.179Z,71.96
2022-10-24T18:43:05.559Z,72.90
2022-10-24T18:45:11.258Z,74.00
2022-10-24T18:47:17.447Z,74.33
2022-10-24T18:49:20.755Z,74.13
2022-10-24T18:51:43.808Z,74.20
2022-10-24T18:53:46.516Z,73.94
2022-10-24T18:55:48.421Z,73.75
2022-10-24T18:57:51.556Z,74.09
2022-10-24T18:59:53.479Z,74.62
2022-10-24T19:02:17.026Z,74.74
2022-10-24T19:04:24.601Z,75.46
2022-10-24T19:06:27.998Z,74.75
2022-10-24T19:08:29.965Z,75.30
2022-10-24T19:10:31.686Z,75.59
2022-10-24T19:12:33.451Z,75.32
2022-10-24T19:14:35.329Z,75.51
2022-10-24T19:16:37.035Z,75.67
2022-10-24T19:18:49.607Z,76.11
2022-10-24T19:20:51.471Z,76.24
2022-10-24T19:22:53.751Z,77.01
2022-10-24T19:25:06.153Z,76.39
2022-10-24T19:27:07.930Z,76.39
2022-10-24T19:29:09.557Z,76.00
2022-10-24T19:31:13.443Z,76.16
2022-10-24T19:33:16.558Z,76.22
2022-10-24T19:35:18.818Z,76.70
2022-10-24T19:37:20.479Z,76.85
2022-10-24T19:39:22.144Z,76.88
2022-10-24T19:41:23.759Z,76.62
2022-10-24T19:43:29.462Z,76.92
2022-10-24T19:45:31.155Z,76.69
2022-10-24T19:47:33.012Z,76.64
2022-10-24T19:49:34.759Z,75.95
2022-10-24T19:51:36.388Z,76.31
2022-10-24T19:53:40.358Z,76.09
2022-10-24T19:55:42.880Z,75.98
2022-10-24T19:57:44.824Z,75.83
2022-10-24T19:59:46.845Z,75.98
2022-10-24T20:01:48.567Z,76.29
2022-10-24T20:03:51.209Z,75.93
2022-10-24T20:05:53.478Z,76.29
2022-10-24T20:07:55.083Z,76.06
2022-10-24T20:09:57.067Z,75.93
2022-10-24T20:11:58.735Z,75.66
2022-10-24T20:14:00.466Z,75.89
2022-10-24T20:16:05.571Z,75.91
2022-10-24T20:18:07.199Z,75.58
2022-10-24T20:20:09.625Z,75.62
2022-10-24T20:22:11.260Z,75.73
2022-10-24T20:24:13.323Z,75.57
2022-10-24T20:26:19.345Z,75.52
2022-10-24T20:28:21.027Z,75.14
2022-10-24T20:30:22.640Z,75.91
2022-10-24T20:32:24.483Z,75.77
2022-10-24T20:34:27.426Z,75.89
2022-10-24T20:36:32.381Z,75.69
2022-10-24T20:38:34.070Z,75.70
2022-10-24T20:40:36.110Z,76.23
2022-10-24T20:42:37.734Z,75.91
2022-10-24T20:44:39.324Z,75.67
2022-10-24T20:46:41.016Z,75.88
2022-10-24T20:48:42.826Z,76.31
2022-10-24T20:50:44.434Z,76.16
2022-10-24T20:52:46.506Z,76.67
2022-10-24T20:54:48.284Z,76.44
2022-10-24T20:56:49.933Z,76.87
2022-10-24T20:58:52.174Z,76.85
2022-10-24T21:00:53.988Z,77.37
2022-10-24T21:02:55.724Z,77.28
2022-10-24T21:04:57.431Z,77.70
2022-10-24T21:06:59.025Z,77.34
2022-10-24T21:11:15.016Z,77.02
2022-10-24T21:13:16.639Z,77.41
2022-10-24T21:15:18.251Z,77.16
2022-10-24T21:17:20.050Z,77.54
2022-10-24T21:19:21.710Z,77.16
2022-10-24T21:21:23.548Z,77.16
2022-10-24T21:23:25.456Z,76.93
2022-10-24T21:25:27.097Z,76.97
2022-10-24T21:27:28.755Z,76.53
2022-10-24T21:29:34.345Z,76.54
2022-10-24T21:31:36.688Z,77.11
2022-10-24T21:33:41.762Z,76.88
2022-10-24T21:35:43.365Z,77.09
2022-10-24T21:37:45.167Z,77.22
2022-10-24T21:39:47.063Z,77.11
2022-10-24T21:41:48.796Z,76.67
2022-10-24T21:43:52.195Z,76.70
2022-10-24T21:46:01.588Z,77.17
2022-10-24T21:48:03.412Z,76.82
2022-10-24T21:50:05.366Z,76.65
2022-10-24T21:52:07.015Z,76.83
2022-10-24T21:54:17.754Z,77.00
2022-10-24T21:56:20.494Z,76.75
2022-10-24T21:58:22.127Z,77.22
2022-10-24T22:00:23.732Z,76.54
2022-10-24T22:02:25.513Z,76.35
2022-10-24T22:04:27.378Z,76.51
2022-10-24T22:06:30.386Z,76.61
2022-10-24T22:08:32.456Z,76.32
2022-10-24T22:10:34.087Z,76.12
2022-10-24T22:12:35.717Z,76.40
2022-10-24T22:14:37.449Z,76.18
2022-10-24T22:16:39.767Z,75.92
2022-10-24T22:18:42.226Z,75.84
2022-10-24T22:20:44.175Z,76.04
2022-10-24T22:22:45.956Z,75.75
2022-10-24T22:24:47.679Z,75.47
2022-10-24T22:26:50.101Z,75.73
2022-10-24T22:28:52.111Z,75.58
2022-10-24T22:30:54.079Z,75.70
2022-10-24T22:32:56.101Z,75.55
2022-10-24T22:35:05.244Z,75.63
2022-10-24T22:37:29.911Z,75.32
2022-10-24T22:39:32.133Z,75.54
2022-10-24T22:41:33.999Z,75.51
2022-10-24T22:43:36.162Z,75.85
2022-10-24T22:45:45.194Z,75.41
2022-10-24T22:48:14.441Z,75.24
2022-10-24T22:50:38.968Z,74.94
2022-10-24T22:52:40.857Z,75.01
2022-10-24T22:54:42.835Z,74.71
2022-10-24T22:56:44.883Z,74.63
2022-10-24T22:58:46.875Z,74.43
2022-10-24T23:00:54.781Z,74.49
2022-10-24T23:03:22.299Z,74.46
2022-10-24T23:05:34.215Z,74.48
2022-10-24T23:07:49.981Z,74.64
2022-10-24T23:09:52.097Z,74.93
2022-10-24T23:11:54.300Z,74.93
2022-10-24T23:13:56.177Z,74.90
2022-10-24T23:16:06.532Z,75.07
2022-10-24T23:18:10.796Z,74.77
2022-10-24T23:20:39.415Z,74.90
2022-10-24T23:22:42.515Z,74.95
2022-10-24T23:24:44.563Z,74.97
2022-10-24T23:27:39.268Z,74.92
2022-10-24T23:29:43.715Z,74.70
2022-10-24T23:31:45.555Z,74.63
2022-10-24T23:33:47.557Z,74.90
2022-10-24T23:35:56.965Z,74.87
2022-10-24T23:37:58.944Z,75.15
2022-10-24T23:40:11.997Z,75.14
2022-10-24T23:42:13.917Z,75.14
2022-10-24T23:44:16.225Z,75.35
2022-10-24T23:46:41.034Z,75.49
2022-10-24T23:48:57.846Z,75.65
2022-10-24T23:51:13.949Z,75.12
2022-10-24T23:53:24.474Z,75.31
2022-10-24T23:55:26.475Z,75.36
2022-10-24T23:57:28.329Z,75.46
2022-10-24T23:59:30.057Z,75.59
